sensor_id;sensor_type;location;lat;lon;timestamp;temperature;humidity
11700;DHT22;5906;51.660;6.674;2023-03-20T00:01:59;9.60;99.90
11700;DHT22;5906;51.660;6.674;2023-03-20T00:04:26;9.60;99.90
11700;DHT22;5906;51.660;6.674;2023-03-20T00:06:53;9.60;99.90
11700;DHT22;5906;51.660;6.674;2023-03-20T00:09:20;9.50;99.90
11700;DHT22;5906;51.660;6.674;2023-03-20T00:11:52;9.50;99.90
11700;DHT22;5906;51.660;6.674;2023-03-20T00:14:20;9.50;99.90
11700;DHT22;5906;51.660;6.674;2023-03-20T00:16:50;9.50;99.90
11700;DHT22;5906;51.660;6.674;2023-03-20T00:19:25;9.50;99.90
11700;DHT22;5906;51.660;6.674;2023-03-20T00:21:54;9.50;99.90
11700;DHT22;5906;51.660;6.674;2023-03-20T00:24:22;9.60;99.90
11700;DHT22;5906;51.660;6.674;2023-03-20T00:26:50;9.60;99.90
11700;DHT22;5906;51.660;6.674;2023-03-20T00:29:28;9.50;99.90
11700;DHT22;5906;51.660;6.674;2023-03-20T00:31:57;9.50;99.90
11700;DHT22;5906;51.660;6.674;2023-03-20T00:34:26;9.50;99.90
11700;DHT22;5906;51.660;6.674;2023-03-20T00:36:55;9.50;99.90
11700;DHT22;5906;51.660;6.674;2023-03-20T00:39:23;9.50;99.90
11700;DHT22;5906;51.660;6.674;2023-03-20T00:42:02;9.60;99.90
11700;DHT22;5906;51.660;6.674;2023-03-20T00:44:36;9.60;99.90
11700;DHT22;5906;51.660;6.674;2023-03-20T00:47:26;9.60;99.90
11700;DHT22;5906;51.660;6.674;2023-03-20T00:49:54;9.50;99.90
11700;DHT22;5906;51.660;6.674;2023-03-20T00:52:22;9.50;99.90
11700;DHT22;5906;51.660;6.674;2023-03-20T00:54:49;9.50;99.90
11700;DHT22;5906;51.660;6.674;2023-03-20T00:57:21;9.40;99.90
11700;DHT22;5906;51.660;6.674;2023-03-20T01:00:02;9.40;99.90
11700;DHT22;5906;51.660;6.674;2023-03-20T01:02:31;9.40;99.90
11700;DHT22;5906;51.660;6.674;2023-03-20T01:04:58;9.40;99.90
11700;DHT22;5906;51.660;6.674;2023-03-20T01:07:25;9.40;99.90
11700;DHT22;5906;51.660;6.674;2023-03-20T01:09:53;9.40;99.90
11700;DHT22;5906;51.660;6.674;2023-03-20T01:12:20;9.40;99.90
11700;DHT22;5906;51.660;6.674;2023-03-20T01:14:55;9.50;99.90
11700;DHT22;5906;51.660;6.674;2023-03-20T01:17:25;9.40;99.90
11700;DHT22;5906;51.660;6.674;2023-03-20T01:19:53;9.40;99.90
11700;DHT22;5906;51.660;6.674;2023-03-20T01:22:20;9.40;99.90
11700;DHT22;5906;51.660;6.674;2023-03-20T01:24:47;9.40;99.90
11700;DHT22;5906;51.660;6.674;2023-03-20T01:27:16;9.40;99.90
11700;DHT22;5906;51.660;6.674;2023-03-20T01:29:44;9.30;99.90
11700;DHT22;5906;51.660;6.674;2023-03-20T01:32:14;9.40;99.90
11700;DHT22;5906;51.660;6.674;2023-03-20T01:34:42;9.40;99.90
11700;DHT22;5906;51.660;6.674;2023-03-20T01:37:22;9.40;99.90
11700;DHT22;5906;51.660;6.674;2023-03-20T01:39:49;9.30;99.90
11700;DHT22;5906;51.660;6.674;2023-03-20T01:42:17;9.30;99.90
11700;DHT22;5906;51.660;6.674;2023-03-20T01:44:44;9.20;99.90
11700;DHT22;5906;51.660;6.674;2023-03-20T01:47:17;9.20;99.90
11700;DHT22;5906;51.660;6.674;2023-03-20T01:52:27;9.20;99.90
11700;DHT22;5906;51.660;6.674;2023-03-20T01:54:54;9.20;99.90
11700;DHT22;5906;51.660;6.674;2023-03-20T01:57:24;9.20;99.90
11700;DHT22;5906;51.660;6.674;2023-03-20T02:00:03;9.30;99.90
11700;DHT22;5906;51.660;6.674;2023-03-20T02:02:31;9.30;99.90
11700;DHT22;5906;51.660;6.674;2023-03-20T02:05:02;9.40;99.90
11700;DHT22;5906;51.660;6.674;2023-03-20T02:07:31;9.40;99.90
11700;DHT22;5906;51.660;6.674;2023-03-20T02:10:01;9.40;99.90
11700;DHT22;5906;51.660;6.674;2023-03-20T02:12:29;9.30;99.90
11700;DHT22;5906;51.660;6.674;2023-03-20T02:14:57;9.30;99.90
11700;DHT22;5906;51.660;6.674;2023-03-20T02:17:24;9.20;99.90
11700;DHT22;5906;51.660;6.674;2023-03-20T02:20:01;9.20;99.90
11700;DHT22;5906;51.660;6.674;2023-03-20T02:42:31;9.20;99.90
11700;DHT22;5906;51.660;6.674;2023-03-20T02:45:15;9.20;99.90
11700;DHT22;5906;51.660;6.674;2023-03-20T02:47:57;9.10;99.90
11700;DHT22;5906;51.660;6.674;2023-03-20T02:50:32;9.20;99.90
11700;DHT22;5906;51.660;6.674;2023-03-20T03:01:21;9.20;99.90
11700;DHT22;5906;51.660;6.674;2023-03-20T03:03:58;9.20;99.90
11700;DHT22;5906;51.660;6.674;2023-03-20T03:06:29;9.10;99.90
11700;DHT22;5906;51.660;6.674;2023-03-20T03:09:07;9.10;99.90
11700;DHT22;5906;51.660;6.674;2023-03-20T03:11:42;9.10;99.90
11700;DHT22;5906;51.660;6.674;2023-03-20T03:17:01;9.10;99.90
11700;DHT22;5906;51.660;6.674;2023-03-20T03:19:31;9.10;99.90
11700;DHT22;5906;51.660;6.674;2023-03-20T03:21:59;9.10;99.90
11700;DHT22;5906;51.660;6.674;2023-03-20T03:24:30;9.10;99.90
11700;DHT22;5906;51.660;6.674;2023-03-20T03:27:25;9.10;99.90
11700;DHT22;5906;51.660;6.674;2023-03-20T03:30:00;9.10;99.90
11700;DHT22;5906;51.660;6.674;2023-03-20T03:32:42;9.10;99.90
11700;DHT22;5906;51.660;6.674;2023-03-20T03:35:14;9.20;99.90
11700;DHT22;5906;51.660;6.674;2023-03-20T03:38:03;9.10;99.90
11700;DHT22;5906;51.660;6.674;2023-03-20T03:40:41;9.10;99.90
11700;DHT22;5906;51.660;6.674;2023-03-20T03:43:21;9.10;99.90
11700;DHT22;5906;51.660;6.674;2023-03-20T03:46:10;9.10;99.90
11700;DHT22;5906;51.660;6.674;2023-03-20T03:48:44;9.00;99.90
11700;DHT22;5906;51.660;6.674;2023-03-20T03:51:16;9.00;99.90
11700;DHT22;5906;51.660;6.674;2023-03-20T03:53:48;9.00;99.90
11700;DHT22;5906;51.660;6.674;2023-03-20T03:56:20;9.00;99.90
11700;DHT22;5906;51.660;6.674;2023-03-20T03:58:52;9.00;99.90
11700;DHT22;5906;51.660;6.674;2023-03-20T04:01:23;9.00;99.90
11700;DHT22;5906;51.660;6.674;2023-03-20T04:03:56;9.00;99.90
11700;DHT22;5906;51.660;6.674;2023-03-20T04:06:25;9.00;99.90
11700;DHT22;5906;51.660;6.674;2023-03-20T04:08:53;8.90;99.90
11700;DHT22;5906;51.660;6.674;2023-03-20T04:11:25;8.90;99.90
11700;DHT22;5906;51.660;6.674;2023-03-20T04:13:54;8.80;99.90
11700;DHT22;5906;51.660;6.674;2023-03-20T04:16:23;8.80;99.90
11700;DHT22;5906;51.660;6.674;2023-03-20T04:18:51;8.70;99.90
11700;DHT22;5906;51.660;6.674;2023-03-20T04:21:19;8.70;99.90
11700;DHT22;5906;51.660;6.674;2023-03-20T04:23:46;8.60;99.90
11700;DHT22;5906;51.660;6.674;2023-03-20T04:26:13;8.60;99.90
11700;DHT22;5906;51.660;6.674;2023-03-20T04:28:40;8.60;99.90
11700;DHT22;5906;51.660;6.674;2023-03-20T04:31:07;8.60;99.90
11700;DHT22;5906;51.660;6.674;2023-03-20T04:33:34;8.50;99.90
11700;DHT22;5906;51.660;6.674;2023-03-20T04:36:01;8.60;99.90
11700;DHT22;5906;51.660;6.674;2023-03-20T04:38:29;8.40;99.90
11700;DHT22;5906;51.660;6.674;2023-03-20T04:40:55;8.40;99.90
11700;DHT22;5906;51.660;6.674;2023-03-20T04:43:23;8.40;99.90
11700;DHT22;5906;51.660;6.674;2023-03-20T04:45:50;8.30;99.90
11700;DHT22;5906;51.660;6.674;2023-03-20T04:48:17;8.30;99.90
11700;DHT22;5906;51.660;6.674;2023-03-20T04:50:44;8.30;99.90
11700;DHT22;5906;51.660;6.674;2023-03-20T04:53:17;8.20;99.90
11700;DHT22;5906;51.660;6.674;2023-03-20T04:55:45;8.30;99.90
11700;DHT22;5906;51.660;6.674;2023-03-20T04:58:12;8.20;99.90
11700;DHT22;5906;51.660;6.674;2023-03-20T05:00:39;8.10;99.90
11700;DHT22;5906;51.660;6.674;2023-03-20T05:03:06;8.10;99.90
11700;DHT22;5906;51.660;6.674;2023-03-20T05:05:33;8.10;99.90
11700;DHT22;5906;51.660;6.674;2023-03-20T05:08:07;8.10;99.90
11700;DHT22;5906;51.660;6.674;2023-03-20T05:10:34;8.00;99.90
11700;DHT22;5906;51.660;6.674;2023-03-20T05:13:01;8.00;99.90
11700;DHT22;5906;51.660;6.674;2023-03-20T05:15:27;8.00;99.90
11700;DHT22;5906;51.660;6.674;2023-03-20T05:17:55;8.00;99.90
11700;DHT22;5906;51.660;6.674;2023-03-20T05:20:22;8.00;99.90
11700;DHT22;5906;51.660;6.674;2023-03-20T05:22:49;8.00;99.90
11700;DHT22;5906;51.660;6.674;2023-03-20T05:25:17;8.00;99.90
11700;DHT22;5906;51.660;6.674;2023-03-20T05:27:45;8.00;99.90
11700;DHT22;5906;51.660;6.674;2023-03-20T05:30:13;7.90;99.90
11700;DHT22;5906;51.660;6.674;2023-03-20T05:32:40;7.90;99.90
11700;DHT22;5906;51.660;6.674;2023-03-20T05:35:10;7.90;99.90
11700;DHT22;5906;51.660;6.674;2023-03-20T05:37:38;7.80;99.90
11700;DHT22;5906;51.660;6.674;2023-03-20T05:40:05;7.80;99.90
11700;DHT22;5906;51.660;6.674;2023-03-20T05:42:32;7.90;99.90
11700;DHT22;5906;51.660;6.674;2023-03-20T05:45:00;7.80;99.90
11700;DHT22;5906;51.660;6.674;2023-03-20T05:47:27;7.90;99.90
11700;DHT22;5906;51.660;6.674;2023-03-20T05:49:54;7.90;99.90
11700;DHT22;5906;51.660;6.674;2023-03-20T05:52:22;7.70;99.90
11700;DHT22;5906;51.660;6.674;2023-03-20T05:54:49;7.80;99.90
11700;DHT22;5906;51.660;6.674;2023-03-20T05:57:16;7.80;99.90
11700;DHT22;5906;51.660;6.674;2023-03-20T05:59:43;7.70;99.90
11700;DHT22;5906;51.660;6.674;2023-03-20T06:02:11;7.80;99.90
11700;DHT22;5906;51.660;6.674;2023-03-20T06:04:38;7.80;99.90
11700;DHT22;5906;51.660;6.674;2023-03-20T06:07:05;7.80;99.90
11700;DHT22;5906;51.660;6.674;2023-03-20T06:09:33;7.80;99.90
11700;DHT22;5906;51.660;6.674;2023-03-20T06:12:00;7.80;99.90
11700;DHT22;5906;51.660;6.674;2023-03-20T06:14:27;7.80;99.90
11700;DHT22;5906;51.660;6.674;2023-03-20T06:16:54;7.80;99.90
11700;DHT22;5906;51.660;6.674;2023-03-20T06:19:22;7.80;99.90
11700;DHT22;5906;51.660;6.674;2023-03-20T06:21:50;7.80;99.90
11700;DHT22;5906;51.660;6.674;2023-03-20T06:24:17;7.80;99.90
11700;DHT22;5906;51.660;6.674;2023-03-20T06:26:44;7.80;99.90
11700;DHT22;5906;51.660;6.674;2023-03-20T06:29:11;7.80;99.90
11700;DHT22;5906;51.660;6.674;2023-03-20T06:31:38;7.90;99.90
11700;DHT22;5906;51.660;6.674;2023-03-20T06:34:05;7.90;99.90
11700;DHT22;5906;51.660;6.674;2023-03-20T06:36:32;7.90;99.90
11700;DHT22;5906;51.660;6.674;2023-03-20T06:38:59;7.90;99.90
11700;DHT22;5906;51.660;6.674;2023-03-20T06:41:26;8.00;99.90
11700;DHT22;5906;51.660;6.674;2023-03-20T06:44:01;8.00;99.90
11700;DHT22;5906;51.660;6.674;2023-03-20T06:46:28;8.10;99.90
11700;DHT22;5906;51.660;6.674;2023-03-20T06:48:55;8.10;99.90
11700;DHT22;5906;51.660;6.674;2023-03-20T06:51:22;8.10;99.90
11700;DHT22;5906;51.660;6.674;2023-03-20T06:53:49;8.10;99.90
11700;DHT22;5906;51.660;6.674;2023-03-20T06:56:16;8.10;99.90
11700;DHT22;5906;51.660;6.674;2023-03-20T06:58:44;8.30;99.90
11700;DHT22;5906;51.660;6.674;2023-03-20T07:01:13;8.30;99.90
11700;DHT22;5906;51.660;6.674;2023-03-20T07:03:42;8.30;99.90
11700;DHT22;5906;51.660;6.674;2023-03-20T07:06:09;8.40;99.90
11700;DHT22;5906;51.660;6.674;2023-03-20T07:08:38;8.40;99.90
11700;DHT22;5906;51.660;6.674;2023-03-20T07:11:06;8.30;99.90
11700;DHT22;5906;51.660;6.674;2023-03-20T07:13:33;8.30;99.90
11700;DHT22;5906;51.660;6.674;2023-03-20T07:16:01;8.40;99.90
11700;DHT22;5906;51.660;6.674;2023-03-20T07:18:30;8.50;99.90
11700;DHT22;5906;51.660;6.674;2023-03-20T07:21:02;8.50;99.90
11700;DHT22;5906;51.660;6.674;2023-03-20T07:23:31;8.60;99.90
11700;DHT22;5906;51.660;6.674;2023-03-20T07:26:00;8.70;99.90
11700;DHT22;5906;51.660;6.674;2023-03-20T07:28:27;8.70;99.90
11700;DHT22;5906;51.660;6.674;2023-03-20T07:30:54;8.70;99.90
11700;DHT22;5906;51.660;6.674;2023-03-20T07:33:21;8.90;99.90
11700;DHT22;5906;51.660;6.674;2023-03-20T07:35:53;9.00;99.90
11700;DHT22;5906;51.660;6.674;2023-03-20T07:38:21;9.00;99.90
11700;DHT22;5906;51.660;6.674;2023-03-20T07:40:48;9.20;99.90
11700;DHT22;5906;51.660;6.674;2023-03-20T07:43:16;9.40;99.90
11700;DHT22;5906;51.660;6.674;2023-03-20T07:45:42;9.50;99.90
11700;DHT22;5906;51.660;6.674;2023-03-20T07:48:09;9.60;99.90
11700;DHT22;5906;51.660;6.674;2023-03-20T07:50:37;9.70;99.90
11700;DHT22;5906;51.660;6.674;2023-03-20T07:53:04;9.80;99.90
11700;DHT22;5906;51.660;6.674;2023-03-20T07:55:31;9.80;99.90
11700;DHT22;5906;51.660;6.674;2023-03-20T07:57:58;9.90;99.90
11700;DHT22;5906;51.660;6.674;2023-03-20T08:00:25;9.90;99.90
11700;DHT22;5906;51.660;6.674;2023-03-20T08:02:54;9.90;99.90
11700;DHT22;5906;51.660;6.674;2023-03-20T08:05:23;10.00;99.90
11700;DHT22;5906;51.660;6.674;2023-03-20T08:07:50;10.00;99.90
11700;DHT22;5906;51.660;6.674;2023-03-20T08:10:17;9.90;99.90
11700;DHT22;5906;51.660;6.674;2023-03-20T08:12:44;9.90;99.90
11700;DHT22;5906;51.660;6.674;2023-03-20T08:15:11;10.00;99.90
11700;DHT22;5906;51.660;6.674;2023-03-20T08:17:43;10.00;99.90
11700;DHT22;5906;51.660;6.674;2023-03-20T08:20:11;9.90;99.90
11700;DHT22;5906;51.660;6.674;2023-03-20T08:22:39;10.00;99.90
11700;DHT22;5906;51.660;6.674;2023-03-20T08:25:07;10.00;99.90
11700;DHT22;5906;51.660;6.674;2023-03-20T08:27:35;10.00;99.90
11700;DHT22;5906;51.660;6.674;2023-03-20T08:30:03;10.10;99.90
11700;DHT22;5906;51.660;6.674;2023-03-20T08:32:30;10.10;99.90
11700;DHT22;5906;51.660;6.674;2023-03-20T08:34:57;10.10;99.90
11700;DHT22;5906;51.660;6.674;2023-03-20T08:37:24;10.20;99.90
11700;DHT22;5906;51.660;6.674;2023-03-20T08:39:51;10.10;99.90
11700;DHT22;5906;51.660;6.674;2023-03-20T08:42:18;10.20;99.90
11700;DHT22;5906;51.660;6.674;2023-03-20T08:44:45;10.10;99.90
11700;DHT22;5906;51.660;6.674;2023-03-20T08:47:14;10.10;99.90
11700;DHT22;5906;51.660;6.674;2023-03-20T08:49:41;10.10;99.90
11700;DHT22;5906;51.660;6.674;2023-03-20T08:52:09;10.20;99.90
11700;DHT22;5906;51.660;6.674;2023-03-20T08:54:36;10.20;99.90
11700;DHT22;5906;51.660;6.674;2023-03-20T08:57:03;10.20;99.90
11700;DHT22;5906;51.660;6.674;2023-03-20T08:59:30;10.20;99.90
11700;DHT22;5906;51.660;6.674;2023-03-20T09:01:58;10.30;99.90
11700;DHT22;5906;51.660;6.674;2023-03-20T09:04:26;10.20;99.90
11700;DHT22;5906;51.660;6.674;2023-03-20T09:06:53;10.20;99.90
11700;DHT22;5906;51.660;6.674;2023-03-20T09:09:20;10.20;99.90
11700;DHT22;5906;51.660;6.674;2023-03-20T09:11:52;10.20;99.90
11700;DHT22;5906;51.660;6.674;2023-03-20T09:14:19;10.10;99.90
11700;DHT22;5906;51.660;6.674;2023-03-20T09:16:46;10.10;99.90
11700;DHT22;5906;51.660;6.674;2023-03-20T09:19:14;10.10;99.90
11700;DHT22;5906;51.660;6.674;2023-03-20T09:21:41;10.20;99.90
11700;DHT22;5906;51.660;6.674;2023-03-20T09:24:08;10.30;99.90
11700;DHT22;5906;51.660;6.674;2023-03-20T09:26:35;10.30;99.90
11700;DHT22;5906;51.660;6.674;2023-03-20T09:29:03;10.40;99.90
11700;DHT22;5906;51.660;6.674;2023-03-20T09:31:30;10.40;99.90
11700;DHT22;5906;51.660;6.674;2023-03-20T09:33:58;10.50;99.90
11700;DHT22;5906;51.660;6.674;2023-03-20T09:36:25;10.50;99.90
11700;DHT22;5906;51.660;6.674;2023-03-20T09:38:52;10.50;99.90
11700;DHT22;5906;51.660;6.674;2023-03-20T09:41:21;10.50;99.90
11700;DHT22;5906;51.660;6.674;2023-03-20T09:52:45;10.60;99.90
11700;DHT22;5906;51.660;6.674;2023-03-20T09:55:20;10.60;99.90
11700;DHT22;5906;51.660;6.674;2023-03-20T09:57:57;10.70;99.90
11700;DHT22;5906;51.660;6.674;2023-03-20T10:00:30;10.80;99.90
11700;DHT22;5906;51.660;6.674;2023-03-20T10:04:03;10.80;99.90
11700;DHT22;5906;51.660;6.674;2023-03-20T10:06:14;10.90;99.90
11700;DHT22;5906;51.660;6.674;2023-03-20T10:08:44;11.00;99.90
11700;DHT22;5906;51.660;6.674;2023-03-20T10:14:15;11.10;99.90
11700;DHT22;5906;51.660;6.674;2023-03-20T10:22:28;11.20;99.90
11700;DHT22;5906;51.660;6.674;2023-03-20T10:27:55;11.30;99.90
11700;DHT22;5906;51.660;6.674;2023-03-20T10:30:29;11.20;99.90
11700;DHT22;5906;51.660;6.674;2023-03-20T10:39:00;11.30;99.90
11700;DHT22;5906;51.660;6.674;2023-03-20T10:41:36;11.50;99.90
11700;DHT22;5906;51.660;6.674;2023-03-20T10:44:05;11.60;99.90
11700;DHT22;5906;51.660;6.674;2023-03-20T10:46:43;11.60;99.90
11700;DHT22;5906;51.660;6.674;2023-03-20T10:52:12;11.70;99.90
11700;DHT22;5906;51.660;6.674;2023-03-20T10:54:42;11.80;99.90
11700;DHT22;5906;51.660;6.674;2023-03-20T10:57:30;11.70;99.90
11700;DHT22;5906;51.660;6.674;2023-03-20T10:59:59;11.60;99.90
11700;DHT22;5906;51.660;6.674;2023-03-20T11:02:29;11.50;99.90
11700;DHT22;5906;51.660;6.674;2023-03-20T11:04:59;11.50;99.90
11700;DHT22;5906;51.660;6.674;2023-03-20T11:07:30;11.50;99.90
11700;DHT22;5906;51.660;6.674;2023-03-20T11:12:41;11.60;99.90
11700;DHT22;5906;51.660;6.674;2023-03-20T11:17:51;11.80;99.90
11700;DHT22;5906;51.660;6.674;2023-03-20T11:20:18;11.90;99.90
11700;DHT22;5906;51.660;6.674;2023-03-20T11:22:47;11.90;99.90
11700;DHT22;5906;51.660;6.674;2023-03-20T11:31:24;11.50;99.90
11700;DHT22;5906;51.660;6.674;2023-03-20T11:36:34;11.30;99.90
11700;DHT22;5906;51.660;6.674;2023-03-20T11:39:15;11.30;99.90
11700;DHT22;5906;51.660;6.674;2023-03-20T11:41:49;11.20;99.90
11700;DHT22;5906;51.660;6.674;2023-03-20T11:44:29;11.20;99.90
11700;DHT22;5906;51.660;6.674;2023-03-20T11:47:04;11.10;99.90
11700;DHT22;5906;51.660;6.674;2023-03-20T11:49:33;11.10;99.90
11700;DHT22;5906;51.660;6.674;2023-03-20T11:52:13;11.00;99.90
11700;DHT22;5906;51.660;6.674;2023-03-20T11:54:47;11.00;99.90
11700;DHT22;5906;51.660;6.674;2023-03-20T11:57:35;10.90;99.90
11700;DHT22;5906;51.660;6.674;2023-03-20T12:02:34;10.80;99.90
11700;DHT22;5906;51.660;6.674;2023-03-20T12:05:37;10.80;99.90
11700;DHT22;5906;51.660;6.674;2023-03-20T12:08:14;10.80;99.90
11700;DHT22;5906;51.660;6.674;2023-03-20T12:10:48;10.90;99.90
11700;DHT22;5906;51.660;6.674;2023-03-20T12:13:23;10.80;99.90
11700;DHT22;5906;51.660;6.674;2023-03-20T12:16:03;11.00;99.90
11700;DHT22;5906;51.660;6.674;2023-03-20T12:18:34;11.20;99.90
11700;DHT22;5906;51.660;6.674;2023-03-20T12:21:23;11.30;99.90
11700;DHT22;5906;51.660;6.674;2023-03-20T12:24:41;11.40;99.90
11700;DHT22;5906;51.660;6.674;2023-03-20T12:27:16;11.50;99.90
11700;DHT22;5906;51.660;6.674;2023-03-20T12:32:47;11.20;99.90
11700;DHT22;5906;51.660;6.674;2023-03-20T12:35:29;11.00;99.90
11700;DHT22;5906;51.660;6.674;2023-03-20T12:37:58;10.90;99.90
11700;DHT22;5906;51.660;6.674;2023-03-20T12:40:41;11.00;99.90
11700;DHT22;5906;51.660;6.674;2023-03-20T12:43:36;11.20;99.90
11700;DHT22;5906;51.660;6.674;2023-03-20T12:51:41;11.40;99.90
11700;DHT22;5906;51.660;6.674;2023-03-20T13:00:20;11.50;99.90
11700;DHT22;5906;51.660;6.674;2023-03-20T13:10:40;11.80;99.90
11700;DHT22;5906;51.660;6.674;2023-03-20T13:13:17;11.70;99.90
11700;DHT22;5906;51.660;6.674;2023-03-20T13:16:06;11.70;99.90
11700;DHT22;5906;51.660;6.674;2023-03-20T13:18:52;11.50;99.90
11700;DHT22;5906;51.660;6.674;2023-03-20T13:21:52;11.30;99.90
11700;DHT22;5906;51.660;6.674;2023-03-20T13:35:27;11.50;99.90
11700;DHT22;5906;51.660;6.674;2023-03-20T13:38:00;11.50;99.90
11700;DHT22;5906;51.660;6.674;2023-03-20T13:40:32;11.60;99.90
11700;DHT22;5906;51.660;6.674;2023-03-20T13:45:38;11.50;99.90
11700;DHT22;5906;51.660;6.674;2023-03-20T13:58:50;11.60;99.90
11700;DHT22;5906;51.660;6.674;2023-03-20T14:04:00;11.20;99.90
11700;DHT22;5906;51.660;6.674;2023-03-20T14:06:42;11.20;99.90
11700;DHT22;5906;51.660;6.674;2023-03-20T14:12:09;11.20;99.90
11700;DHT22;5906;51.660;6.674;2023-03-20T14:14:41;11.10;99.90
11700;DHT22;5906;51.660;6.674;2023-03-20T14:17:15;11.20;99.90
11700;DHT22;5906;51.660;6.674;2023-03-20T14:19:43;11.30;99.90
11700;DHT22;5906;51.660;6.674;2023-03-20T14:22:17;11.30;99.90
11700;DHT22;5906;51.660;6.674;2023-03-20T14:24:50;11.20;99.90
11700;DHT22;5906;51.660;6.674;2023-03-20T14:27:20;11.10;99.90
11700;DHT22;5906;51.660;6.674;2023-03-20T14:30:43;11.00;99.90
11700;DHT22;5906;51.660;6.674;2023-03-20T14:35:48;11.00;99.90
11700;DHT22;5906;51.660;6.674;2023-03-20T14:38:25;11.10;99.90
11700;DHT22;5906;51.660;6.674;2023-03-20T14:50:01;11.00;99.90
11700;DHT22;5906;51.660;6.674;2023-03-20T14:57:46;10.80;99.90
11700;DHT22;5906;51.660;6.674;2023-03-20T15:00:25;10.80;99.90
11700;DHT22;5906;51.660;6.674;2023-03-20T15:05:35;10.80;99.90
11700;DHT22;5906;51.660;6.674;2023-03-20T15:08:13;10.80;99.90
11700;DHT22;5906;51.660;6.674;2023-03-20T15:10:48;10.70;99.90
11700;DHT22;5906;51.660;6.674;2023-03-20T15:13:16;10.70;99.90
11700;DHT22;5906;51.660;6.674;2023-03-20T15:18:24;10.50;99.90
11700;DHT22;5906;51.660;6.674;2023-03-20T15:20:52;10.50;99.90
11700;DHT22;5906;51.660;6.674;2023-03-20T15:23:21;10.50;99.90
11700;DHT22;5906;51.660;6.674;2023-03-20T15:25:48;10.60;99.90
11700;DHT22;5906;51.660;6.674;2023-03-20T15:28:24;10.70;99.90
11700;DHT22;5906;51.660;6.674;2023-03-20T15:30:56;10.60;99.90
11700;DHT22;5906;51.660;6.674;2023-03-20T15:33:30;10.60;99.90
11700;DHT22;5906;51.660;6.674;2023-03-20T15:36:07;10.50;99.90
11700;DHT22;5906;51.660;6.674;2023-03-20T15:38:34;10.50;99.90
11700;DHT22;5906;51.660;6.674;2023-03-20T15:41:06;10.50;99.90
11700;DHT22;5906;51.660;6.674;2023-03-20T15:43:34;10.40;99.90
11700;DHT22;5906;51.660;6.674;2023-03-20T15:46:03;10.50;99.90
11700;DHT22;5906;51.660;6.674;2023-03-20T15:48:48;10.40;99.90
11700;DHT22;5906;51.660;6.674;2023-03-20T15:51:16;10.40;99.90
11700;DHT22;5906;51.660;6.674;2023-03-20T15:53:46;10.40;99.90
11700;DHT22;5906;51.660;6.674;2023-03-20T15:56:18;10.30;99.90
11700;DHT22;5906;51.660;6.674;2023-03-20T15:58:48;10.30;99.90
11700;DHT22;5906;51.660;6.674;2023-03-20T16:01:18;10.30;99.90
11700;DHT22;5906;51.660;6.674;2023-03-20T16:03:45;10.30;99.90
11700;DHT22;5906;51.660;6.674;2023-03-20T16:06:20;10.30;99.90
11700;DHT22;5906;51.660;6.674;2023-03-20T16:08:59;10.40;99.90
11700;DHT22;5906;51.660;6.674;2023-03-20T16:11:38;10.30;99.90
11700;DHT22;5906;51.660;6.674;2023-03-20T16:14:12;10.20;99.90
11700;DHT22;5906;51.660;6.674;2023-03-20T16:16:40;10.20;99.90
11700;DHT22;5906;51.660;6.674;2023-03-20T16:19:09;10.10;99.90
11700;DHT22;5906;51.660;6.674;2023-03-20T16:21:41;10.20;99.90
11700;DHT22;5906;51.660;6.674;2023-03-20T16:24:20;10.20;99.90
11700;DHT22;5906;51.660;6.674;2023-03-20T16:26:50;10.10;99.90
11700;DHT22;5906;51.660;6.674;2023-03-20T16:29:20;10.10;99.90
11700;DHT22;5906;51.660;6.674;2023-03-20T16:31:58;10.10;99.90
11700;DHT22;5906;51.660;6.674;2023-03-20T16:34:35;10.00;99.90
11700;DHT22;5906;51.660;6.674;2023-03-20T16:37:22;10.00;99.90
11700;DHT22;5906;51.660;6.674;2023-03-20T16:40:01;10.00;99.90
11700;DHT22;5906;51.660;6.674;2023-03-20T16:42:29;10.00;99.90
11700;DHT22;5906;51.660;6.674;2023-03-20T16:44:57;10.00;99.90
11700;DHT22;5906;51.660;6.674;2023-03-20T16:47:32;10.00;99.90
11700;DHT22;5906;51.660;6.674;2023-03-20T16:52:38;9.80;99.90
11700;DHT22;5906;51.660;6.674;2023-03-20T16:55:13;9.70;99.90
11700;DHT22;5906;51.660;6.674;2023-03-20T16:57:41;9.70;99.90
11700;DHT22;5906;51.660;6.674;2023-03-20T17:00:21;9.70;99.90
11700;DHT22;5906;51.660;6.674;2023-03-20T17:02:51;9.70;99.90
11700;DHT22;5906;51.660;6.674;2023-03-20T17:05:44;9.70;99.90
11700;DHT22;5906;51.660;6.674;2023-03-20T17:08:14;9.70;99.90
11700;DHT22;5906;51.660;6.674;2023-03-20T17:10:44;9.60;99.90
11700;DHT22;5906;51.660;6.674;2023-03-20T17:13:11;9.60;99.90
11700;DHT22;5906;51.660;6.674;2023-03-20T17:15:39;9.60;99.90
11700;DHT22;5906;51.660;6.674;2023-03-20T17:18:12;9.60;99.90
11700;DHT22;5906;51.660;6.674;2023-03-20T17:20:40;9.60;99.90
11700;DHT22;5906;51.660;6.674;2023-03-20T17:23:17;9.60;99.90
11700;DHT22;5906;51.660;6.674;2023-03-20T17:25:44;9.50;99.90
11700;DHT22;5906;51.660;6.674;2023-03-20T17:28:18;9.50;99.90
11700;DHT22;5906;51.660;6.674;2023-03-20T17:30:48;9.50;99.90
11700;DHT22;5906;51.660;6.674;2023-03-20T17:33:16;9.50;99.90
11700;DHT22;5906;51.660;6.674;2023-03-20T17:35:44;9.50;99.90
11700;DHT22;5906;51.660;6.674;2023-03-20T17:38:20;9.50;99.90
11700;DHT22;5906;51.660;6.674;2023-03-20T17:40:48;9.50;99.90
11700;DHT22;5906;51.660;6.674;2023-03-20T17:43:17;9.50;99.90
11700;DHT22;5906;51.660;6.674;2023-03-20T17:45:45;9.50;99.90
11700;DHT22;5906;51.660;6.674;2023-03-20T17:48:16;9.60;99.90
11700;DHT22;5906;51.660;6.674;2023-03-20T17:50:44;9.60;99.90
11700;DHT22;5906;51.660;6.674;2023-03-20T17:53:23;9.50;99.90
11700;DHT22;5906;51.660;6.674;2023-03-20T17:55:51;9.50;99.90
11700;DHT22;5906;51.660;6.674;2023-03-20T17:58:20;9.50;99.90
11700;DHT22;5906;51.660;6.674;2023-03-20T18:00:53;9.50;99.90
11700;DHT22;5906;51.660;6.674;2023-03-20T18:03:20;9.40;99.90
11700;DHT22;5906;51.660;6.674;2023-03-20T18:05:49;9.50;99.90
11700;DHT22;5906;51.660;6.674;2023-03-20T18:08:18;9.50;99.90
11700;DHT22;5906;51.660;6.674;2023-03-20T18:10:50;9.50;99.90
11700;DHT22;5906;51.660;6.674;2023-03-20T18:13:18;9.50;99.90
11700;DHT22;5906;51.660;6.674;2023-03-20T18:15:48;9.50;99.90
11700;DHT22;5906;51.660;6.674;2023-03-20T18:18:15;9.40;99.90
11700;DHT22;5906;51.660;6.674;2023-03-20T18:20:43;9.40;99.90
11700;DHT22;5906;51.660;6.674;2023-03-20T18:23:11;9.50;99.90
11700;DHT22;5906;51.660;6.674;2023-03-20T18:25:39;9.50;99.90
11700;DHT22;5906;51.660;6.674;2023-03-20T18:28:12;9.50;99.90
11700;DHT22;5906;51.660;6.674;2023-03-20T18:30:40;9.50;99.90
11700;DHT22;5906;51.660;6.674;2023-03-20T18:33:07;9.50;99.90
11700;DHT22;5906;51.660;6.674;2023-03-20T18:35:35;9.50;99.90
11700;DHT22;5906;51.660;6.674;2023-03-20T18:38:03;9.50;99.90
11700;DHT22;5906;51.660;6.674;2023-03-20T18:40:32;9.50;99.90
11700;DHT22;5906;51.660;6.674;2023-03-20T18:43:01;9.50;99.90
11700;DHT22;5906;51.660;6.674;2023-03-20T18:45:29;9.50;99.90
11700;DHT22;5906;51.660;6.674;2023-03-20T18:47:57;9.50;99.90
11700;DHT22;5906;51.660;6.674;2023-03-20T18:50:28;9.60;99.90
11700;DHT22;5906;51.660;6.674;2023-03-20T18:52:56;9.60;99.90
11700;DHT22;5906;51.660;6.674;2023-03-20T18:55:26;9.60;99.90
11700;DHT22;5906;51.660;6.674;2023-03-20T18:57:53;9.60;99.90